MMTM 090440Z 13006KT 6SM SCT012 BKN200 25/23 A2996 RMK 8/108 BR= 090441

MMTM 090340Z 00000KT 6SM SCT012 BKN200 26/23 A2997 RMK 8/108 BR LWR CU= 090342

MMTM 090249Z 12006KT 6SM SCT010 25/23 A2996 RMK SLP139 57003 953 8/100 BR LWR CU= 090251

MMTM 090141Z 00000KT 6SM SCT010 25/24 A2994 RMK 8/100 BR LWR CU= 090143

MMTM 090049Z 00000KT 6SM SCT012 25/24 A2992 RMK 8/100 BR LWR CU= 090051

MMTM 082340Z 03004KT 7SM FEW010 25/24 A2990 RMK SLP110 57010 960 8/100 HZY= 082343

COR MMTM 082340Z 03004KT 6SM FEW010 25/24 A2990 RMK SLP110 57010 960 8/100 HZY CI= 082343

MMTM 082240Z 03004KT 7SM FEW020 26/23 A2989 RMK 8/100 HZY CI= 082242

MMTM 082140Z 05009KT 7SM FEW020 27/23 A2989 RMK 8/100 CI HZY= 082141

MMTM 082048Z 07006KT 7SM FEW020 28/23 A2990 RMK SLP124 57034 968 8/100 HZY CI= 082050

MMTM 081940Z 07005KT 6SM BKN020 27/22 A2991 RMK 8/100 HZY= 081942

MMTM 081843Z 13002KT 4SM BKN015 27/23 A2994 RMK 8/100 HZ= 081844

MMTM 081748Z 36003KT 4SM SCT015 SCT100 28/22 A2998 RMK SLP158 57009 967 8/130 HZ= 081750

MMTM 081653Z 00000KT 4SM SCT015 BKN100 27/22 A3000 RMK 8/170 HZY= 081655

MMTM 081548Z 00000KT 3SM HZ SCT015 BKN100 25/22 A3003 RMK 8/670= 081550

MMTM 081442Z 33002KT 3SM BR HZ BKN015 OVC100 23/21 A3002 RMK SLP167 52013 966 8/67/= 081444

MMTM 081348Z 34002KT 3SM BR BKN015 OVC100 21/21 A3001 RMK 8/67/ TOPS 052= 081350

MMTM 081253Z 30004KT 3SM BR SCT010 OVC100 21/21 A2999 RMK 8/67/= 081255

MMTM 081158Z RTD 30003KT 5SM BKN100 21/20 A2998 RMK SLP154 5//// 960 8/070 BR RTS= 081200

MMTM 081142Z 32004KT 7SM FEW015 20/20 A2996 RMK 8/400 MST= 081142

MMTM 080440Z 00000KT 5SM SCT015 21/20 A2997 RMK 8/500 BR= 080442

MMTM 080341Z 00000KT 7SM SCT030 22/21 A2996 RMK 8/500 BR= 080343

MMTM 080241Z 00000KT 7SM SCT030 22/21 A2996 RMK SLP142 52013 963 8/100 BR= 080243

MMTM 080142Z 00000KT 7SM BKN030 22/20 A2994 RMK 8/500 LWR SC FU= 080144

MMTM 080041Z 07004KT 6SM BKN030 22/20 A2993 RMK 8/500 LWR ST FU= 080043

MMTM 072345Z 03005KT 6SM SCT015 BKN200 23/20 A2992 RMK SLP120 52004 954 8/408 FU= 072347

MMTM 072241Z 02005KT 6SM BKN015 BKN040 23/20 A2992 RMK 8/800 FU= 072243

MMTM 072142Z 04007KT 6SM BKN015 OVC040 23/19 A2993 RMK 8/8//= 072144

MMTM 072045Z 36008KT 7SM BKN020 OVC040 23/19 A2995 RMK SLP142 57033 918 8/8//= 072048

MMTM 071946Z 05008KT 7SM SCT020 BKN040 BKN200 24/19 A2996 RMK 8/801 HZY= 071950

MMTM 071850Z 04006KT 7SM FEW040 SCT200 24/19 A3000 RMK 8/501 SC HZY= 071852

MMTM 071744Z 02007KT 7SM FEW015 SCT040 24/18 A3005 RMK SLP175 57008 931 8/500 CI= 071747

MMTM 071647Z 03010KT 7SM FEW040 SCT200 24/18 A3007 RMK 8/501 HZY= 071649

MMTM 071542Z 36010KT 6SM SCT015 BKN040 BKN200 23/17 A3008 RMK 8/806= 071544

MMTM 071446Z 36012KT 6SM SCT015 BKN040 BKN200 22/17 A3007 RMK SLP183 52019 932 8/806= 071449

MMTM 071349Z E01010G20KT 6SM SCT010 BKN020 BKN200 22/16 A3005 RMK 8/508= 071351

MMTM 071251Z E01010G20KT 6SM SCT010 BKN015 BKN200 21/16 A3003 RMK 8/508= 071253

MMTM 071157Z RTD E36010G20KT 6SM FEW010 BKN020 BKN200 21/17 A3002 RMK SLP164 5//// 930 8/508 RTS= 071202

MMTM 071141Z E36015G25KT 10SM SCT010 BKN020 BKN200 21/17 A3001 RMK 8/402= 071141

MMTM 070440Z 00000KT 5SM SCT200 24/23 A3002 RMK 8/001 BR= 070442

MMTM 070350Z 00000KT 5SM SCT200 24/23 A3002 RMK 8/001 BR= 070354

MMTM 070244Z 00000KT 5SM FEW010 SCT200 25/23 A2999 RMK SLP155 52031 919 8/501 HZY= 070249

MMTM 070147Z 00000KT 5SM SCT200 25/23 A2996 RMK 8/001 HZY= 070148

MMTM 070045Z 03005KT 4SM SCT200 25/23 A2993 RMK 8/001 HZY= 070046

COR MMTM 062344Z 00000KT 4SM SCT200 25/23 A2991 RMK SLP124 57002 904 8/001 HZY= 062353

MMTM 062344Z 00000KT 4SM SCT200 25/23 A2991 RMK 8/001 HZY= 062347

MMTM 062250Z 06006KT 5SM SCT200 26/23 A2990 RMK 8/001 HZY= 062252

MMTM 062143Z 06006KT 5SM SCT200 27/23 A2988 RMK 8/001 HZY= 062146

MMTM 062043Z 05005KT 7SM FEW020 SCT200 28/23 A2989 RMK SLP124 57020 952 8/101 HZY= 062045

MMTM 061944Z 07007KT 7SM SCT020 BKN200 29/23 A2990 RMK 8/101 HZY= 061946